Time;durP1;ratioP1;P1;durP2;ratioP2;P2;SDS_P1;SDS_P2;PMS_P1;PMS_P2;Temp;Humidity;BMP_temperature;BMP_pressure;BME280_temperature;BME280_humidity;BME280_pressure;Samples;Min_cycle;Max_cycle;Signal;HPM_P1;HPM_P2
2024/01/13 00:00:11;;;;;;;6.77;4.10;;;;;;;;;;5038110;28;87837;-65
2024/01/13 00:02:41;;;;;;;7.33;4.20;;;;;;;;;;5038067;28;89544;-65
2024/01/13 00:05:09;;;;;;;5.17;3.47;;;;;;;;;;5038465;28;89195;-65
2024/01/13 00:07:40;;;;;;;7.33;4.50;;;;;;;;;;5037391;28;88891;-65
2024/01/13 00:10:08;;;;;;;5.53;4.23;;;;;;;;;;5038150;28;87943;-64
2024/01/13 00:12:41;;;;;;;6.37;3.50;;;;;;;;;;5037238;28;89667;-65
2024/01/13 00:15:10;;;;;;;5.70;3.60;;;;;;;;;;5037350;28;89203;-65
2024/01/13 00:17:38;;;;;;;4.47;3.87;;;;;;;;;;5038410;27;88965;-64
2024/01/13 00:20:09;;;;;;;7.10;3.90;;;;;;;;;;5038316;28;87637;-65
2024/01/13 00:22:41;;;;;;;7.77;4.33;;;;;;;;;;5037938;28;89605;-64
2024/01/13 00:25:10;;;;;;;6.03;3.87;;;;;;;;;;5038031;28;89145;-64
2024/01/13 00:27:38;;;;;;;5.63;4.30;;;;;;;;;;5038215;28;88748;-64
2024/01/13 00:30:07;;;;;;;6.50;3.67;;;;;;;;;;5038537;28;88216;-64
2024/01/13 00:32:36;;;;;;;4.27;3.43;;;;;;;;;;5037603;28;89551;-64
2024/01/13 00:35:05;;;;;;;5.70;3.67;;;;;;;;;;5036527;28;89766;-65
2024/01/13 00:37:34;;;;;;;3.97;2.97;;;;;;;;;;5036753;28;89763;-64
2024/01/13 00:40:02;;;;;;;5.33;3.33;;;;;;;;;;5037105;28;87525;-64
2024/01/13 00:42:31;;;;;;;5.93;3.93;;;;;;;;;;5037372;28;88566;-64
2024/01/13 00:44:59;;;;;;;5.13;3.33;;;;;;;;;;5018434;28;89000;-64
2024/01/13 00:47:28;;;;;;;5.90;3.40;;;;;;;;;;5015782;28;88743;-64
2024/01/13 00:49:56;;;;;;;5.57;2.90;;;;;;;;;;5006959;28;87543;-65
2024/01/13 00:52:26;;;;;;;4.67;3.13;;;;;;;;;;5016713;28;89604;-64
2024/01/13 00:54:56;;;;;;;5.07;3.43;;;;;;;;;;5015492;28;87993;-65
2024/01/13 00:57:24;;;;;;;6.80;4.27;;;;;;;;;;4996943;28;88697;-64
2024/01/13 00:59:53;;;;;;;7.40;3.87;;;;;;;;;;4996496;28;87936;-64
2024/01/13 01:02:21;;;;;;;6.43;3.83;;;;;;;;;;5004342;28;89779;-64
2024/01/13 01:04:49;;;;;;;6.40;4.67;;;;;;;;;;5016708;28;89136;-65
2024/01/13 01:07:18;;;;;;;6.83;4.23;;;;;;;;;;5017261;28;88864;-65
2024/01/13 01:09:46;;;;;;;9.07;4.23;;;;;;;;;;5016959;28;88035;-64
2024/01/13 01:12:16;;;;;;;5.60;3.83;;;;;;;;;;5017126;28;89738;-64
2024/01/13 01:14:44;;;;;;;6.03;4.40;;;;;;;;;;5017080;28;89096;-65
2024/01/13 01:17:13;;;;;;;6.93;3.73;;;;;;;;;;5017472;28;87688;-64
2024/01/13 01:19:41;;;;;;;5.13;3.73;;;;;;;;;;5017153;28;87425;-64
2024/01/13 01:22:10;;;;;;;6.50;3.53;;;;;;;;;;5016507;28;88515;-64
2024/01/13 01:24:38;;;;;;;8.70;4.77;;;;;;;;;;5013915;28;90145;-65
2024/01/13 01:27:06;;;;;;;4.73;3.37;;;;;;;;;;5019847;28;89764;-64
2024/01/13 01:29:37;;;;;;;5.43;3.67;;;;;;;;;;5020606;28;87648;-65
2024/01/13 01:32:05;;;;;;;5.47;2.90;;;;;;;;;;5019639;28;89676;-64
2024/01/13 01:34:34;;;;;;;5.57;3.57;;;;;;;;;;5019885;28;88078;-65
2024/01/13 01:37:02;;;;;;;5.93;3.37;;;;;;;;;;5019844;28;87718;-64
2024/01/13 01:39:30;;;;;;;4.60;4.03;;;;;;;;;;5007295;28;87430;-65
2024/01/13 01:41:59;;;;;;;6.83;3.43;;;;;;;;;;5000102;28;89763;-64
2024/01/13 01:44:27;;;;;;;7.67;3.70;;;;;;;;;;5000387;28;89153;-64
2024/01/13 01:46:57;;;;;;;11.10;4.07;;;;;;;;;;4999349;28;88829;-64
2024/01/13 01:49:25;;;;;;;4.87;3.13;;;;;;;;;;4999879;28;87818;-64
2024/01/13 01:51:54;;;;;;;6.47;4.03;;;;;;;;;;4999650;28;89258;-64
2024/01/13 01:54:22;;;;;;;7.43;3.67;;;;;;;;;;4999866;28;89234;-65
2024/01/13 01:56:50;;;;;;;3.33;3.00;;;;;;;;;;4999875;28;88641;-64
2024/01/13 01:59:19;;;;;;;7.57;2.77;;;;;;;;;;4999985;28;87576;-65
2024/01/13 02:01:47;;;;;;;4.83;2.87;;;;;;;;;;5012598;28;89633;-64
2024/01/13 02:04:17;;;;;;;3.80;2.87;;;;;;;;;;5019984;28;88881;-65
2024/01/13 02:06:46;;;;;;;3.37;2.43;;;;;;;;;;5020034;28;88984;-64
2024/01/13 02:09:14;;;;;;;6.83;3.77;;;;;;;;;;5019924;28;87651;-64
2024/01/13 02:11:43;;;;;;;7.60;3.13;;;;;;;;;;5019449;28;89145;-64
2024/01/13 02:14:11;;;;;;;4.53;2.80;;;;;;;;;;5019121;28;89609;-64
2024/01/13 02:16:40;;;;;;;7.30;2.83;;;;;;;;;;5019486;28;88667;-64
2024/01/13 02:19:08;;;;;;;3.70;2.47;;;;;;;;;;5019959;28;87644;-64
2024/01/13 02:21:38;;;;;;;5.60;3.33;;;;;;;;;;5020974;28;89637;-64
2024/01/13 02:24:07;;;;;;;6.93;2.63;;;;;;;;;;5022783;28;88698;-64
2024/01/13 02:26:35;;;;;;;3.67;2.93;;;;;;;;;;5022203;28;88748;-64
2024/01/13 02:29:04;;;;;;;3.13;2.70;;;;;;;;;;5023324;28;87695;-65
2024/01/13 02:31:32;;;;;;;4.57;3.03;;;;;;;;;;5023053;28;89651;-65
2024/01/13 02:34:00;;;;;;;6.17;2.90;;;;;;;;;;5022282;28;89098;-65
2024/01/13 02:36:29;;;;;;;6.23;3.00;;;;;;;;;;5021289;28;88810;-65
2024/01/13 02:38:59;;;;;;;6.93;2.83;;;;;;;;;;5021877;28;87824;-64
2024/01/13 02:41:27;;;;;;;3.47;2.40;;;;;;;;;;5022103;28;89922;-64
2024/01/13 02:43:55;;;;;;;4.10;2.43;;;;;;;;;;5022313;28;89312;-65
2024/01/13 02:46:24;;;;;;;3.13;2.03;;;;;;;;;;5022077;28;88703;-64
2024/01/13 02:48:52;;;;;;;3.30;2.47;;;;;;;;;;5022744;28;87715;-64
2024/01/13 02:51:21;;;;;;;5.07;2.40;;;;;;;;;;5021354;28;88595;-64
2024/01/13 02:53:50;;;;;;;3.03;2.60;;;;;;;;;;5022060;28;89163;-65
2024/01/13 02:56:19;;;;;;;4.00;2.10;;;;;;;;;;5022237;28;88942;-65
2024/01/13 02:58:48;;;;;;;2.80;1.83;;;;;;;;;;5018296;28;87580;-65
2024/01/13 03:01:16;;;;;;;3.77;2.00;;;;;;;;;;5022290;28;90004;-64
2024/01/13 03:03:49;;;;;;;2.77;1.97;;;;;;;;;;5021074;28;90003;-64
2024/01/13 03:06:21;;;;;;;3.23;1.80;;;;;;;;;;5021722;28;89685;-64
2024/01/13 03:08:50;;;;;;;3.50;1.77;;;;;;;;;;5022556;28;87621;-64
2024/01/13 03:11:19;;;;;;;2.77;1.93;;;;;;;;;;5022127;28;89919;-64
2024/01/13 03:13:52;;;;;;;2.30;1.33;;;;;;;;;;5021739;28;89105;-64
2024/01/13 03:16:20;;;;;;;1.80;1.30;;;;;;;;;;5021760;28;88741;-64
2024/01/13 03:18:49;;;;;;;3.03;1.57;;;;;;;;;;5022349;28;87556;-64
2024/01/13 03:21:17;;;;;;;2.67;1.97;;;;;;;;;;5021719;28;89801;-64
2024/01/13 03:23:46;;;;;;;2.13;1.67;;;;;;;;;;5021321;28;89341;-64
2024/01/13 03:26:15;;;;;;;4.13;1.97;;;;;;;;;;5021232;28;88794;-64
2024/01/13 03:28:45;;;;;;;2.43;1.90;;;;;;;;;;5021373;28;87878;-64
2024/01/13 03:31:13;;;;;;;2.40;1.60;;;;;;;;;;5021978;28;88808;-64
2024/01/13 03:33:45;;;;;;;2.40;1.63;;;;;;;;;;5020975;28;88609;-64
2024/01/13 03:36:15;;;;;;;2.17;1.63;;;;;;;;;;5017125;28;89045;-64
2024/01/13 03:38:43;;;;;;;3.00;2.10;;;;;;;;;;5021284;28;87695;-64
2024/01/13 03:41:13;;;;;;;3.33;2.00;;;;;;;;;;5021792;28;89787;-64
2024/01/13 03:43:42;;;;;;;1.47;1.27;;;;;;;;;;5021474;28;87941;-64
2024/01/13 03:46:12;;;;;;;2.37;1.80;;;;;;;;;;5015270;28;87589;-64
2024/01/13 03:48:41;;;;;;;1.60;1.33;;;;;;;;;;5021446;28;87842;-64
2024/01/13 03:51:10;;;;;;;3.47;1.57;;;;;;;;;;5021806;28;89735;-64
2024/01/13 03:53:39;;;;;;;3.00;1.70;;;;;;;;;;5020432;28;90103;-64
2024/01/13 03:56:08;;;;;;;3.17;1.73;;;;;;;;;;5006036;28;89798;-64
2024/01/13 03:58:38;;;;;;;2.70;1.53;;;;;;;;;;5004361;28;87553;-64
2024/01/13 04:01:06;;;;;;;1.43;1.33;;;;;;;;;;5021686;28;88681;-64
2024/01/13 04:03:36;;;;;;;2.93;2.13;;;;;;;;;;5020866;28;89082;-64
2024/01/13 04:06:05;;;;;;;1.63;1.53;;;;;;;;;;5021453;28;87668;-64
2024/01/13 04:08:34;;;;;;;2.67;1.17;;;;;;;;;;5021851;28;87625;-64
2024/01/13 04:11:03;;;;;;;1.43;1.17;;;;;;;;;;5019987;28;89668;-64
2024/01/13 04:13:31;;;;;;;2.30;1.13;;;;;;;;;;5021245;28;89086;-65
2024/01/13 04:16:00;;;;;;;3.90;2.00;;;;;;;;;;5021293;28;88695;-64
2024/01/13 04:18:28;;;;;;;1.10;1.00;;;;;;;;;;5020807;28;87987;-64
2024/01/13 04:20:58;;;;;;;3.30;1.47;;;;;;;;;;5021050;28;89671;-64
2024/01/13 04:23:43;;;;;;;1.27;1.07;;;;;;;;;;5021231;28;88977;-65
2024/01/13 04:26:12;;;;;;;1.27;1.17;;;;;;;;;;5020571;28;88773;-64
2024/01/13 04:28:40;;;;;;;1.63;1.23;;;;;;;;;;5021121;28;87757;-65
2024/01/13 04:31:08;;;;;;;1.80;1.43;;;;;;;;;;5020582;28;89572;-64
2024/01/13 04:33:37;;;;;;;1.13;0.87;;;;;;;;;;5020331;28;89142;-64
2024/01/13 04:36:07;;;;;;;1.47;1.00;;;;;;;;;;5020548;28;88921;-64
2024/01/13 04:38:36;;;;;;;3.83;0.80;;;;;;;;;;5020967;28;87625;-64
2024/01/13 04:41:04;;;;;;;1.73;0.90;;;;;;;;;;5020417;28;90127;-64
2024/01/13 04:43:33;;;;;;;1.37;0.93;;;;;;;;;;5016018;28;89999;-64
2024/01/13 04:46:01;;;;;;;1.93;1.80;;;;;;;;;;5020491;28;89450;-64
2024/01/13 04:48:29;;;;;;;1.10;1.00;;;;;;;;;;5020686;28;87304;-64
2024/01/13 04:50:58;;;;;;;2.70;1.43;;;;;;;;;;5021322;28;89611;-64
2024/01/13 04:53:28;;;;;;;1.50;1.40;;;;;;;;;;5026129;28;89034;-64
2024/01/13 04:55:56;;;;;;;1.97;1.13;;;;;;;;;;5021932;28;88796;-64
2024/01/13 04:58:24;;;;;;;3.20;1.70;;;;;;;;;;5031077;28;87647;-64
2024/01/13 05:00:53;;;;;;;3.00;1.37;;;;;;;;;;5028060;28;89630;-64
2024/01/13 05:03:21;;;;;;;3.67;1.37;;;;;;;;;;5026682;28;89178;-64
2024/01/13 05:05:50;;;;;;;3.47;1.60;;;;;;;;;;5028801;28;87767;-64
2024/01/13 05:08:18;;;;;;;4.60;2.27;;;;;;;;;;5024942;28;88073;-64
2024/01/13 05:10:48;;;;;;;4.63;1.90;;;;;;;;;;5026650;28;89717;-64
2024/01/13 05:13:16;;;;;;;4.67;2.60;;;;;;;;;;5027502;28;89062;-64
2024/01/13 05:15:44;;;;;;;3.40;2.27;;;;;;;;;;5029141;28;88588;-64
2024/01/13 05:18:13;;;;;;;4.03;2.87;;;;;;;;;;5018206;28;89220;-64
2024/01/13 05:20:41;;;;;;;4.67;2.40;;;;;;;;;;5024924;28;89625;-64
2024/01/13 05:23:10;;;;;;;4.43;2.87;;;;;;;;;;5028261;28;88323;-64
2024/01/13 05:25:39;;;;;;;8.50;3.80;;;;;;;;;;5022897;28;89174;-64
2024/01/13 05:28:09;;;;;;;4.13;2.80;;;;;;;;;;5027084;28;87581;-64
2024/01/13 05:30:37;;;;;;;2.90;2.43;;;;;;;;;;5018220;28;88696;-65
2024/01/13 05:33:05;;;;;;;6.90;3.70;;;;;;;;;;5017177;28;90132;-64
2024/01/13 05:35:34;;;;;;;4.37;2.90;;;;;;;;;;5017951;28;89698;-65
2024/01/13 05:38:02;;;;;;;5.77;3.40;;;;;;;;;;5013449;28;87555;-64
2024/01/13 05:40:31;;;;;;;5.03;3.20;;;;;;;;;;5018218;28;89704;-64
2024/01/13 05:42:59;;;;;;;5.73;3.67;;;;;;;;;;5018954;28;88148;-64
2024/01/13 05:45:29;;;;;;;7.30;3.97;;;;;;;;;;5019233;28;89124;-64
2024/01/13 05:47:57;;;;;;;7.77;4.23;;;;;;;;;;5016398;28;87673;-64
2024/01/13 05:50:26;;;;;;;6.30;4.07;;;;;;;;;;5019699;28;89923;-65
2024/01/13 05:52:55;;;;;;;5.77;3.63;;;;;;;;;;5013509;28;89055;-64
2024/01/13 05:55:23;;;;;;;5.63;3.30;;;;;;;;;;5020653;28;89093;-64
2024/01/13 05:57:53;;;;;;;9.60;4.27;;;;;;;;;;5021987;28;87944;-65
2024/01/13 06:00:22;;;;;;;9.13;5.17;;;;;;;;;;5020152;28;89797;-64
2024/01/13 06:02:51;;;;;;;6.80;4.27;;;;;;;;;;5022363;28;89143;-64
2024/01/13 06:05:20;;;;;;;8.33;4.83;;;;;;;;;;5019864;28;89013;-64
2024/01/13 06:07:48;;;;;;;8.30;4.40;;;;;;;;;;5022543;28;87628;-64
2024/01/13 06:10:17;;;;;;;7.77;4.20;;;;;;;;;;5022518;28;89570;-64
2024/01/13 06:12:46;;;;;;;6.97;4.70;;;;;;;;;;5022454;28;88986;-65
2024/01/13 06:15:14;;;;;;;8.33;5.00;;;;;;;;;;5022416;28;87593;-64
2024/01/13 06:17:43;;;;;;;7.53;4.93;;;;;;;;;;5020325;28;87351;-64
2024/01/13 06:20:13;;;;;;;8.43;6.00;;;;;;;;;;5022622;28;89638;-65
2024/01/13 06:22:41;;;;;;;7.53;4.77;;;;;;;;;;5018758;28;90357;-65
2024/01/13 06:25:09;;;;;;;10.70;6.20;;;;;;;;;;5021235;28;90106;-64
2024/01/13 06:27:38;;;;;;;12.23;6.13;;;;;;;;;;5022263;28;87687;-64
2024/01/13 06:30:08;;;;;;;9.37;5.77;;;;;;;;;;5021780;28;89575;-64
2024/01/13 06:32:37;;;;;;;12.77;6.37;;;;;;;;;;5021825;28;89225;-64
2024/01/13 06:35:06;;;;;;;9.77;6.17;;;;;;;;;;5018800;28;88840;-65
2024/01/13 06:37:36;;;;;;;14.73;7.43;;;;;;;;;;5018011;28;87601;-64
2024/01/13 06:40:04;;;;;;;17.40;7.70;;;;;;;;;;5021971;28;89656;-64
2024/01/13 06:42:34;;;;;;;14.17;8.10;;;;;;;;;;5021213;28;89121;-64
2024/01/13 06:45:02;;;;;;;14.03;7.47;;;;;;;;;;5021249;28;88669;-64
2024/01/13 06:47:31;;;;;;;15.27;7.53;;;;;;;;;;5008267;28;88695;-64
2024/01/13 06:49:59;;;;;;;10.00;6.27;;;;;;;;;;5021633;28;89683;-64
2024/01/13 06:52:27;;;;;;;12.63;7.77;;;;;;;;;;5021924;28;89032;-64
2024/01/13 06:54:57;;;;;;;21.37;9.23;;;;;;;;;;5021030;28;88763;-64
2024/01/13 06:57:25;;;;;;;16.70;8.77;;;;;;;;;;5020913;28;87688;-65
2024/01/13 06:59:54;;;;;;;14.80;9.27;;;;;;;;;;5021810;28;88589;-64
2024/01/13 07:02:22;;;;;;;13.63;9.07;;;;;;;;;;5021291;28;89219;-64
2024/01/13 07:04:51;;;;;;;19.13;9.90;;;;;;;;;;5021978;28;88846;-64
2024/01/13 07:07:19;;;;;;;20.50;11.40;;;;;;;;;;5021003;28;87630;-64
2024/01/13 07:09:47;;;;;;;17.87;9.47;;;;;;;;;;5021283;28;89515;-64
2024/01/13 07:12:20;;;;;;;17.43;9.80;;;;;;;;;;5021142;28;90029;-64
2024/01/13 07:14:49;;;;;;;15.73;8.37;;;;;;;;;;5021757;28;89785;-64
2024/01/13 07:17:17;;;;;;;17.60;9.67;;;;;;;;;;5011568;28;87749;-64
2024/01/13 07:19:45;;;;;;;19.90;9.87;;;;;;;;;;5004769;28;89678;-64
2024/01/13 07:22:14;;;;;;;19.13;9.57;;;;;;;;;;5021563;28;89101;-64
2024/01/13 07:24:43;;;;;;;18.50;10.67;;;;;;;;;;5011404;28;88868;-64
2024/01/13 07:27:12;;;;;;;16.47;10.80;;;;;;;;;;5018936;28;87293;-64
2024/01/13 07:29:41;;;;;;;25.10;11.73;;;;;;;;;;5020721;28;89706;-64
2024/01/13 07:32:22;;;;;;;16.53;9.53;;;;;;;;;;5020494;28;89333;-64
2024/01/13 07:34:51;;;;;;;15.90;9.43;;;;;;;;;;5021669;28;89085;-64
2024/01/13 07:37:20;;;;;;;14.73;9.50;;;;;;;;;;5020327;28;88934;-64
2024/01/13 07:39:48;;;;;;;14.13;10.10;;;;;;;;;;5020739;28;89653;-64
2024/01/13 07:42:17;;;;;;;17.90;10.00;;;;;;;;;;5020032;28;89048;-64
2024/01/13 07:44:47;;;;;;;17.77;10.80;;;;;;;;;;5020910;28;89032;-64
2024/01/13 07:47:16;;;;;;;14.03;9.80;;;;;;;;;;5020914;28;87622;-64
2024/01/13 07:49:44;;;;;;;14.07;9.57;;;;;;;;;;5021871;28;89419;-64
2024/01/13 07:52:12;;;;;;;18.10;10.63;;;;;;;;;;5021243;28;89110;-64
2024/01/13 07:54:41;;;;;;;13.00;9.27;;;;;;;;;;5011943;28;88940;-64
2024/01/13 07:57:09;;;;;;;15.37;10.13;;;;;;;;;;5021448;28;87644;-64
2024/01/13 07:59:37;;;;;;;16.10;9.00;;;;;;;;;;5018576;28;89586;-64
2024/01/13 08:02:07;;;;;;;11.97;7.53;;;;;;;;;;5000919;28;90152;-64
2024/01/13 08:04:36;;;;;;;13.63;8.90;;;;;;;;;;5001451;28;89430;-64
2024/01/13 08:07:05;;;;;;;13.97;7.97;;;;;;;;;;5010793;28;87627;-64
2024/01/13 08:09:34;;;;;;;14.40;9.67;;;;;;;;;;5021292;28;88395;-64
2024/01/13 08:12:02;;;;;;;14.10;8.83;;;;;;;;;;5021052;28;88751;-64
2024/01/13 08:14:30;;;;;;;17.93;8.50;;;;;;;;;;5021241;28;88859;-64
2024/01/13 08:16:59;;;;;;;16.37;8.27;;;;;;;;;;5021183;28;87848;-64
2024/01/13 08:19:28;;;;;;;16.97;9.37;;;;;;;;;;5021302;28;89556;-64
2024/01/13 08:21:57;;;;;;;18.00;9.37;;;;;;;;;;5020611;28;89104;-64
2024/01/13 08:24:26;;;;;;;13.03;7.23;;;;;;;;;;5020530;28;88975;-64
2024/01/13 08:26:54;;;;;;;16.23;6.90;;;;;;;;;;5020086;28;88302;-64
2024/01/13 08:29:22;;;;;;;16.27;7.13;;;;;;;;;;5007866;28;89782;-64
2024/01/13 08:31:51;;;;;;;13.73;7.47;;;;;;;;;;5014890;28;89085;-64
2024/01/13 08:34:19;;;;;;;11.53;7.13;;;;;;;;;;5019717;28;89028;-64
2024/01/13 08:36:49;;;;;;;9.53;6.63;;;;;;;;;;5019885;28;87657;-64
2024/01/13 08:39:17;;;;;;;12.03;7.17;;;;;;;;;;5019424;28;89626;-64
2024/01/13 08:41:46;;;;;;;10.57;7.03;;;;;;;;;;5014605;28;89037;-64
2024/01/13 08:44:15;;;;;;;12.60;8.20;;;;;;;;;;5021190;28;88874;-64
2024/01/13 08:46:44;;;;;;;13.00;6.10;;;;;;;;;;5020982;28;87625;-64
2024/01/13 08:49:13;;;;;;;8.50;5.47;;;;;;;;;;5020637;28;89260;-64
2024/01/13 08:51:42;;;;;;;8.97;6.10;;;;;;;;;;5011033;28;90032;-64
2024/01/13 08:54:12;;;;;;;8.67;5.23;;;;;;;;;;5019679;28;89804;-64
2024/01/13 08:56:40;;;;;;;7.57;4.73;;;;;;;;;;5020823;28;87548;-64
2024/01/13 08:59:09;;;;;;;8.40;5.63;;;;;;;;;;5020278;28;89153;-64
2024/01/13 09:01:38;;;;;;;8.93;6.30;;;;;;;;;;5020831;28;89127;-64
2024/01/13 09:04:08;;;;;;;7.77;5.07;;;;;;;;;;5020069;28;88863;-64
2024/01/13 09:06:38;;;;;;;12.07;6.23;;;;;;;;;;5013018;28;87597;-64
2024/01/13 09:09:06;;;;;;;9.73;6.10;;;;;;;;;;5019326;28;88523;-64
2024/01/13 09:11:37;;;;;;;8.67;4.40;;;;;;;;;;5020495;28;88741;-64
2024/01/13 09:14:11;;;;;;;6.83;5.07;;;;;;;;;;5020590;28;89204;-64
2024/01/13 09:16:41;;;;;;;8.83;4.83;;;;;;;;;;5019566;28;88017;-64
2024/01/13 09:19:10;;;;;;;7.53;4.57;;;;;;;;;;5006259;28;89579;-64
2024/01/13 09:21:39;;;;;;;7.50;4.70;;;;;;;;;;5000479;28;88020;-64
2024/01/13 09:24:13;;;;;;;6.47;4.43;;;;;;;;;;5010866;28;88890;-64
2024/01/13 09:26:43;;;;;;;6.53;3.83;;;;;;;;;;5000556;28;87255;-64
2024/01/13 09:29:16;;;;;;;8.67;4.77;;;;;;;;;;5007279;28;89620;-64
2024/01/13 09:31:47;;;;;;;5.43;3.63;;;;;;;;;;5023488;28;89048;-64
2024/01/13 09:34:16;;;;;;;9.47;4.80;;;;;;;;;;5024050;28;88855;-64
2024/01/13 09:36:45;;;;;;;5.50;3.73;;;;;;;;;;5023294;28;87742;-64
2024/01/13 09:39:20;;;;;;;8.33;3.87;;;;;;;;;;5023075;28;89599;-64
2024/01/13 09:41:51;;;;;;;8.53;4.63;;;;;;;;;;5022112;28;90256;-64
2024/01/13 09:44:23;;;;;;;6.53;4.60;;;;;;;;;;5022114;28;89847;-65
2024/01/13 09:46:52;;;;;;;8.33;4.10;;;;;;;;;;5023915;28;87475;-67
2024/01/13 09:49:23;;;;;;;6.13;3.57;;;;;;;;;;5019058;28;89621;-65
2024/01/13 09:51:54;;;;;;;10.57;4.23;;;;;;;;;;5022771;28;89148;-65
2024/01/13 09:54:24;;;;;;;7.93;4.33;;;;;;;;;;5023216;28;88995;-68
2024/01/13 09:56:55;;;;;;;7.13;4.60;;;;;;;;;;5023576;28;87346;-65
2024/01/13 09:59:25;;;;;;;7.03;4.60;;;;;;;;;;5023677;28;89495;-65
2024/01/13 10:01:54;;;;;;;5.53;4.63;;;;;;;;;;5018734;28;89046;-66
2024/01/13 10:04:22;;;;;;;5.53;4.07;;;;;;;;;;5014688;28;88979;-66
2024/01/13 10:06:51;;;;;;;8.23;4.70;;;;;;;;;;5002863;28;88202;-65
2024/01/13 10:09:19;;;;;;;8.43;4.33;;;;;;;;;;5017057;28;90004;-65
2024/01/13 10:12:07;;;;;;;7.87;4.27;;;;;;;;;;5021973;28;89184;-65
2024/01/13 10:14:43;;;;;;;8.53;3.93;;;;;;;;;;5008693;28;88928;-65
2024/01/13 10:17:14;;;;;;;5.33;3.73;;;;;;;;;;5023170;28;87448;-65
2024/01/13 10:19:43;;;;;;;4.63;3.20;;;;;;;;;;5020932;28;90273;-66
2024/01/13 10:22:15;;;;;;;5.23;2.73;;;;;;;;;;5020299;28;89001;-66
2024/01/13 10:24:44;;;;;;;6.83;2.70;;;;;;;;;;5023241;28;88424;-67
2024/01/13 10:27:14;;;;;;;4.40;2.87;;;;;;;;;;5023254;28;87618;-66
2024/01/13 10:29:43;;;;;;;6.00;2.60;;;;;;;;;;5022965;28;89554;-67
2024/01/13 10:32:12;;;;;;;5.77;2.80;;;;;;;;;;5022551;28;89941;-66
2024/01/13 10:34:50;;;;;;;3.60;2.40;;;;;;;;;;5022574;28;89774;-66
2024/01/13 10:37:19;;;;;;;2.40;1.83;;;;;;;;;;5022244;28;87619;-67
2024/01/13 10:39:49;;;;;;;2.97;2.13;;;;;;;;;;5020657;28;89660;-67
2024/01/13 10:42:21;;;;;;;4.70;3.03;;;;;;;;;;5020759;28;92190;-67
2024/01/13 10:44:54;;;;;;;3.40;1.97;;;;;;;;;;5021254;28;89224;-67
2024/01/13 10:47:22;;;;;;;2.40;2.20;;;;;;;;;;5021555;28;87714;-66
2024/01/13 10:49:56;;;;;;;3.03;2.00;;;;;;;;;;5021405;28;89637;-67
2024/01/13 10:52:26;;;;;;;4.67;1.90;;;;;;;;;;5016112;28;89502;-67
2024/01/13 10:54:57;;;;;;;2.37;1.80;;;;;;;;;;5019505;28;88555;-67
2024/01/13 10:57:26;;;;;;;2.67;2.17;;;;;;;;;;5018520;28;88030;-67
2024/01/13 10:59:55;;;;;;;3.53;2.13;;;;;;;;;;5019524;28;89771;-67
2024/01/13 11:02:23;;;;;;;2.63;2.03;;;;;;;;;;5010728;28;89019;-67
2024/01/13 11:04:52;;;;;;;8.17;2.13;;;;;;;;;;5009171;28;89204;-65
2024/01/13 11:07:20;;;;;;;8.23;2.27;;;;;;;;;;5008809;28;88042;-65
2024/01/13 11:09:48;;;;;;;5.90;3.13;;;;;;;;;;5005650;28;89518;-65
2024/01/13 11:12:17;;;;;;;4.67;2.60;;;;;;;;;;5018622;28;87822;-65
2024/01/13 11:14:50;;;;;;;6.50;3.17;;;;;;;;;;5019006;28;89073;-65
2024/01/13 11:17:19;;;;;;;6.33;3.33;;;;;;;;;;5019295;28;87961;-65
2024/01/13 11:19:47;;;;;;;5.93;3.53;;;;;;;;;;5018820;28;89839;-65
2024/01/13 11:22:33;;;;;;;5.67;3.03;;;;;;;;;;5018433;28;88955;-65
2024/01/13 11:25:08;;;;;;;5.37;3.57;;;;;;;;;;4998945;28;90318;-65
2024/01/13 11:27:38;;;;;;;6.77;3.27;;;;;;;;;;4998388;28;88223;-65
2024/01/13 11:30:09;;;;;;;6.83;3.83;;;;;;;;;;4997889;28;88469;-65
2024/01/13 11:32:39;;;;;;;6.43;3.90;;;;;;;;;;5013866;28;89088;-65
2024/01/13 11:35:08;;;;;;;8.70;4.23;;;;;;;;;;5016056;28;88802;-65
2024/01/13 11:37:37;;;;;;;7.10;4.03;;;;;;;;;;5017976;28;87349;-65
2024/01/13 11:40:06;;;;;;;9.60;3.43;;;;;;;;;;5006705;28;90862;-65
2024/01/13 11:42:34;;;;;;;6.77;4.17;;;;;;;;;;5017617;28;88511;-65
2024/01/13 11:45:04;;;;;;;9.33;3.57;;;;;;;;;;5017601;28;88770;-64
2024/01/13 11:47:36;;;;;;;5.37;4.07;;;;;;;;;;5017603;28;88066;-65
2024/01/13 11:50:09;;;;;;;4.67;3.30;;;;;;;;;;5017326;28;88501;-65
2024/01/13 11:52:38;;;;;;;7.87;4.10;;;;;;;;;;5016205;28;89143;-65
2024/01/13 11:55:09;;;;;;;6.23;3.67;;;;;;;;;;5017479;28;88737;-65
2024/01/13 11:57:39;;;;;;;7.03;4.60;;;;;;;;;;5018377;28;87554;-66
2024/01/13 12:00:08;;;;;;;8.07;4.10;;;;;;;;;;5016085;28;89796;-64
2024/01/13 12:02:39;;;;;;;7.13;4.50;;;;;;;;;;5017563;28;89218;-65
2024/01/13 12:05:13;;;;;;;5.77;3.50;;;;;;;;;;5015199;28;89181;-64
2024/01/13 12:07:41;;;;;;;5.50;4.07;;;;;;;;;;5015055;28;88492;-65
2024/01/13 12:10:11;;;;;;;8.83;5.00;;;;;;;;;;5017803;28;88443;-65
2024/01/13 12:12:41;;;;;;;9.80;5.67;;;;;;;;;;5017479;28;90226;-64
2024/01/13 12:15:10;;;;;;;8.63;4.70;;;;;;;;;;5017741;28;89820;-65
2024/01/13 12:17:40;;;;;;;10.40;4.77;;;;;;;;;;5017387;28;87621;-65
2024/01/13 12:20:11;;;;;;;9.53;5.53;;;;;;;;;;5017396;28;89870;-65
2024/01/13 12:22:39;;;;;;;9.67;6.07;;;;;;;;;;5017962;28;89257;-64
2024/01/13 12:25:10;;;;;;;12.83;5.90;;;;;;;;;;5016885;28;88930;-65
2024/01/13 12:27:38;;;;;;;7.80;5.30;;;;;;;;;;5017039;28;87584;-65
2024/01/13 12:30:12;;;;;;;14.47;5.67;;;;;;;;;;5018230;28;89845;-65
2024/01/13 12:32:42;;;;;;;10.23;5.87;;;;;;;;;;5017888;28;88021;-65
2024/01/13 12:35:14;;;;;;;8.07;5.97;;;;;;;;;;5018007;28;89024;-65
2024/01/13 12:37:43;;;;;;;15.30;6.20;;;;;;;;;;5017240;28;88075;-65
2024/01/13 12:40:13;;;;;;;13.47;6.67;;;;;;;;;;4997495;28;89757;-65
2024/01/13 12:42:41;;;;;;;9.13;5.93;;;;;;;;;;4997902;28;87880;-65
2024/01/13 12:45:11;;;;;;;11.33;5.50;;;;;;;;;;4996811;28;88869;-65
2024/01/13 12:47:40;;;;;;;10.30;6.50;;;;;;;;;;5011899;28;87594;-65
2024/01/13 12:50:10;;;;;;;11.07;6.80;;;;;;;;;;5016660;28;89713;-65
2024/01/13 12:52:39;;;;;;;11.23;6.73;;;;;;;;;;5036024;28;89265;-65
2024/01/13 12:55:08;;;;;;;7.57;5.27;;;;;;;;;;5037012;28;88968;-65
2024/01/13 12:57:43;;;;;;;10.70;7.00;;;;;;;;;;5029407;27;88434;-64
2024/01/13 13:00:12;;;;;;;9.40;7.30;;;;;;;;;;5015888;28;89686;-65
2024/01/13 13:02:41;;;;;;;14.17;6.93;;;;;;;;;;5015702;28;90145;-65
2024/01/13 13:05:11;;;;;;;11.30;7.10;;;;;;;;;;5015653;28;89711;-65
2024/01/13 13:07:40;;;;;;;11.37;7.63;;;;;;;;;;5017907;28;87588;-65
2024/01/13 13:10:09;;;;;;;13.77;7.10;;;;;;;;;;5016334;28;88232;-66
2024/01/13 13:12:38;;;;;;;8.37;6.23;;;;;;;;;;5016268;28;89114;-65
2024/01/13 13:15:06;;;;;;;13.90;6.57;;;;;;;;;;5016057;28;88888;-65
2024/01/13 13:17:40;;;;;;;13.87;7.47;;;;;;;;;;5017765;28;87517;-65
2024/01/13 13:20:11;;;;;;;9.20;6.23;;;;;;;;;;5014361;28;89774;-66
2024/01/13 13:22:39;;;;;;;12.37;6.37;;;;;;;;;;5018262;28;88000;-65
2024/01/13 13:25:07;;;;;;;8.93;6.47;;;;;;;;;;5019174;28;89293;-65
2024/01/13 13:27:45;;;;;;;12.47;6.53;;;;;;;;;;5020149;28;87865;-65
2024/01/13 13:30:15;;;;;;;10.70;6.47;;;;;;;;;;5019724;28;89580;-65
2024/01/13 13:32:44;;;;;;;14.07;6.93;;;;;;;;;;5019468;28;89001;-65
2024/01/13 13:35:16;;;;;;;11.43;5.50;;;;;;;;;;5019362;28;88971;-66
2024/01/13 13:37:48;;;;;;;8.50;5.70;;;;;;;;;;5020137;28;87495;-66
2024/01/13 13:40:17;;;;;;;11.20;6.43;;;;;;;;;;5019939;28;90367;-65
2024/01/13 13:42:46;;;;;;;9.10;5.17;;;;;;;;;;5019035;28;89034;-65
2024/01/13 13:45:14;;;;;;;7.63;5.40;;;;;;;;;;5019383;28;88739;-65
2024/01/13 13:47:44;;;;;;;9.30;5.93;;;;;;;;;;5020245;28;87682;-65
2024/01/13 13:50:12;;;;;;;8.83;5.73;;;;;;;;;;5019570;28;89644;-66
2024/01/13 13:52:46;;;;;;;8.53;5.40;;;;;;;;;;5018853;28;89811;-66
2024/01/13 13:55:14;;;;;;;6.47;5.27;;;;;;;;;;5019135;28;89820;-65
2024/01/13 13:57:43;;;;;;;8.93;5.00;;;;;;;;;;5019272;28;87342;-66
2024/01/13 14:00:12;;;;;;;9.00;4.30;;;;;;;;;;5018607;28;89681;-66
2024/01/13 14:02:41;;;;;;;14.80;5.00;;;;;;;;;;5019120;28;89005;-66
2024/01/13 14:05:09;;;;;;;7.20;4.57;;;;;;;;;;5018819;28;88939;-66
2024/01/13 14:07:48;;;;;;;7.80;4.43;;;;;;;;;;5019468;28;87551;-65
2024/01/13 14:10:17;;;;;;;5.53;4.03;;;;;;;;;;5018917;28;91958;-65
2024/01/13 14:12:45;;;;;;;7.07;4.20;;;;;;;;;;5019779;28;87792;-65
2024/01/13 14:15:14;;;;;;;5.60;4.10;;;;;;;;;;5019694;28;87849;-65
2024/01/13 14:17:45;;;;;;;7.30;4.53;;;;;;;;;;5022453;28;87936;-65
2024/01/13 14:20:16;;;;;;;8.37;4.37;;;;;;;;;;5022122;28;89732;-66
2024/01/13 14:22:51;;;;;;;7.17;4.37;;;;;;;;;;5022241;28;89153;-66
2024/01/13 14:25:19;;;;;;;7.03;3.53;;;;;;;;;;5022393;28;88778;-66
2024/01/13 14:27:48;;;;;;;4.50;3.37;;;;;;;;;;5022265;28;87653;-66
2024/01/13 14:30:17;;;;;;;3.90;2.87;;;;;;;;;;5022067;28;87420;-65
2024/01/13 14:32:46;;;;;;;8.47;3.60;;;;;;;;;;5022486;28;89336;-65
2024/01/13 14:35:15;;;;;;;7.70;3.40;;;;;;;;;;5022922;28;88526;-65
2024/01/13 14:37:48;;;;;;;5.73;3.30;;;;;;;;;;5022439;28;87478;-66
2024/01/13 14:40:18;;;;;;;3.73;2.33;;;;;;;;;;5021923;28;88492;-66
2024/01/13 14:42:47;;;;;;;6.03;3.30;;;;;;;;;;5021932;28;89009;-66
2024/01/13 14:45:16;;;;;;;4.13;3.23;;;;;;;;;;5022629;28;90217;-65
2024/01/13 14:47:51;;;;;;;5.83;3.03;;;;;;;;;;5022266;28;87568;-65
2024/01/13 14:50:22;;;;;;;8.67;3.40;;;;;;;;;;5022205;28;89643;-66
2024/01/13 14:52:52;;;;;;;8.10;3.77;;;;;;;;;;5001916;28;89338;-67